Overview Statistics Trail Chart Weather Telemetry Raw packets
 

This is the latest recevied weather packets stored in our database for station/object WX5KDM. If no packets are shown the sender has not sent any weather packets the latest 10 day(s).

<< 99 100 101 102 103 104 105 >>
Time Temp. Humidity Pressure Rain* Wind** Luminosity Snow
1787877869 22.78° C 94% 1014.5 hPa 0 mm - - -
1787877564 22.78° C 93% 1014.6 hPa 0 mm - - -
1787877260 22.78° C 92% 1014.2 hPa 0 mm - - -
1787876954 23.33° C 90% 1014.4 hPa 0 mm - - -
1787876650 23.33° C 87% 1014.5 hPa 0 mm - - -
1787876345 23.89° C 89% 1014.5 hPa 0 mm - - -
1787876043 25° C 84% 1015 hPa 0 mm - - -
1787875738 26.11° C 86% 1014.7 hPa 0 mm - - -
1787875437 28.33° C 74% 1014.4 hPa 0 mm - - -
1787875136 29.44° C 74% 1014.3 hPa 0 mm - - -
1787874831 30.56° C 73% 1014.3 hPa 0 mm - - -
1787874529 30.56° C 72% 1014 hPa 0 mm - - -
1787874224 31.11° C 69% 1014 hPa 0 mm - - -
1787873919 32.22° C 67% 1014 hPa 0 mm - - -
1787873619 32.22° C 65% 1013.9 hPa 0 mm - - -
1787873314 32.22° C 66% 1013.8 hPa 0 mm - - -
1787873012 32.22° C 64% 1014 hPa 0 mm - - -
1787872708 32.22° C 64% 1013.9 hPa 0 mm - - -
1787872404 32.22° C 62% 1014 hPa 0 mm - - -
1787872099 32.22° C 64% 1014 hPa 0 mm - - -
1787871794 31.67° C 65% 1014 hPa 0 mm - - -
1787871489 32.78° C 63% 1014 hPa 0 mm - - -
1787871183 32.78° C 63% 1014.3 hPa 0 mm - - -
1787870883 32.78° C 64% 1014.1 hPa 0 mm - - -
1787870578 32.22° C 65% 1014 hPa 0 mm - - -

* Rain latest hour (hover to see other rain measurements)
** Current wind speed in m/s (hover to see current wind gust speed)